sensor_id;sensor_type;location;lat;lon;timestamp;P1;durP1;ratioP1;P2;durP2;ratioP2
36321;SDS011;23564;48.290;11.460;2022-10-15T00:02:08;7.45;;;1.90;;
36321;SDS011;23564;48.290;11.460;2022-10-15T00:04:34;4.32;;;1.92;;
36321;SDS011;23564;48.290;11.460;2022-10-15T00:07:01;4.28;;;1.40;;
36321;SDS011;23564;48.290;11.460;2022-10-15T00:09:27;4.20;;;1.40;;
36321;SDS011;23564;48.290;11.460;2022-10-15T00:11:52;8.43;;;1.30;;
36321;SDS011;23564;48.290;11.460;2022-10-15T00:14:18;5.18;;;1.60;;
36321;SDS011;23564;48.290;11.460;2022-10-15T00:16:44;4.25;;;1.60;;
36321;SDS011;23564;48.290;11.460;2022-10-15T00:19:09;3.42;;;1.73;;
36321;SDS011;23564;48.290;11.460;2022-10-15T00:21:35;3.90;;;1.77;;
36321;SDS011;23564;48.290;11.460;2022-10-15T00:24:01;3.97;;;1.45;;
36321;SDS011;23564;48.290;11.460;2022-10-15T00:26:28;5.15;;;1.60;;
36321;SDS011;23564;48.290;11.460;2022-10-15T00:28:55;6.32;;;1.70;;
36321;SDS011;23564;48.290;11.460;2022-10-15T00:31:23;5.32;;;1.60;;
36321;SDS011;23564;48.290;11.460;2022-10-15T00:33:51;3.03;;;1.27;;
36321;SDS011;23564;48.290;11.460;2022-10-15T00:36:20;3.53;;;1.70;;
36321;SDS011;23564;48.290;11.460;2022-10-15T00:38:47;2.85;;;1.30;;
36321;SDS011;23564;48.290;11.460;2022-10-15T00:41:15;3.08;;;1.40;;
36321;SDS011;23564;48.290;11.460;2022-10-15T00:43:52;4.28;;;1.63;;
36321;SDS011;23564;48.290;11.460;2022-10-15T00:46:43;6.10;;;1.30;;
36321;SDS011;23564;48.290;11.460;2022-10-15T00:51:36;4.57;;;1.77;;
36321;SDS011;23564;48.290;11.460;2022-10-15T00:54:05;2.08;;;1.00;;
36321;SDS011;23564;48.290;11.460;2022-10-15T00:56:31;3.97;;;1.23;;
36321;SDS011;23564;48.290;11.460;2022-10-15T00:58:57;6.70;;;1.15;;
36321;SDS011;23564;48.290;11.460;2022-10-15T01:01:23;5.70;;;1.20;;
36321;SDS011;23564;48.290;11.460;2022-10-15T01:03:49;2.20;;;0.90;;
36321;SDS011;23564;48.290;11.460;2022-10-15T01:06:17;5.10;;;1.02;;
36321;SDS011;23564;48.290;11.460;2022-10-15T01:08:42;2.05;;;0.90;;
36321;SDS011;23564;48.290;11.460;2022-10-15T01:11:25;3.35;;;1.20;;
36321;SDS011;23564;48.290;11.460;2022-10-15T01:14:04;4.05;;;0.98;;
36321;SDS011;23564;48.290;11.460;2022-10-15T01:16:54;3.92;;;1.10;;
36321;SDS011;23564;48.290;11.460;2022-10-15T01:25:37;3.50;;;0.70;;
36321;SDS011;23564;48.290;11.460;2022-10-15T01:28:46;1.83;;;1.08;;
36321;SDS011;23564;48.290;11.460;2022-10-15T01:34:27;7.75;;;1.40;;
36321;SDS011;23564;48.290;11.460;2022-10-15T01:37:51;3.00;;;0.75;;
36321;SDS011;23564;48.290;11.460;2022-10-15T01:39:53;5.78;;;0.88;;
36321;SDS011;23564;48.290;11.460;2022-10-15T01:42:26;1.13;;;0.85;;
36321;SDS011;23564;48.290;11.460;2022-10-15T01:45:04;2.65;;;1.02;;
36321;SDS011;23564;48.290;11.460;2022-10-15T01:47:35;2.88;;;0.90;;
36321;SDS011;23564;48.290;11.460;2022-10-15T01:50:02;1.38;;;0.80;;
36321;SDS011;23564;48.290;11.460;2022-10-15T01:52:30;2.35;;;1.20;;
36321;SDS011;23564;48.290;11.460;2022-10-15T01:55:00;1.38;;;0.80;;
36321;SDS011;23564;48.290;11.460;2022-10-15T01:57:28;1.67;;;1.05;;
36321;SDS011;23564;48.290;11.460;2022-10-15T01:59:56;2.42;;;0.70;;
36321;SDS011;23564;48.290;11.460;2022-10-15T02:02:22;1.50;;;0.80;;
36321;SDS011;23564;48.290;11.460;2022-10-15T02:04:48;3.00;;;1.10;;
36321;SDS011;23564;48.290;11.460;2022-10-15T02:07:14;5.68;;;1.00;;
36321;SDS011;23564;48.290;11.460;2022-10-15T02:09:59;5.65;;;1.02;;
36321;SDS011;23564;48.290;11.460;2022-10-15T02:12:51;1.58;;;0.85;;
36321;SDS011;23564;48.290;11.460;2022-10-15T02:15:35;1.52;;;0.80;;
36321;SDS011;23564;48.290;11.460;2022-10-15T02:18:36;1.55;;;0.80;;
36321;SDS011;23564;48.290;11.460;2022-10-15T02:21:11;6.03;;;1.05;;
36321;SDS011;23564;48.290;11.460;2022-10-15T02:26:23;2.35;;;0.70;;
36321;SDS011;23564;48.290;11.460;2022-10-15T02:28:53;2.22;;;0.98;;
36321;SDS011;23564;48.290;11.460;2022-10-15T02:31:22;2.80;;;0.70;;
36321;SDS011;23564;48.290;11.460;2022-10-15T02:33:50;3.65;;;0.82;;
36321;SDS011;23564;48.290;11.460;2022-10-15T02:36:19;1.40;;;0.90;;
36321;SDS011;23564;48.290;11.460;2022-10-15T02:38:44;4.93;;;0.82;;
36321;SDS011;23564;48.290;11.460;2022-10-15T02:41:11;3.78;;;0.70;;
36321;SDS011;23564;48.290;11.460;2022-10-15T02:43:38;2.50;;;0.98;;
36321;SDS011;23564;48.290;11.460;2022-10-15T02:46:04;3.72;;;0.98;;
36321;SDS011;23564;48.290;11.460;2022-10-15T02:48:32;1.50;;;0.60;;
36321;SDS011;23564;48.290;11.460;2022-10-15T02:50:58;1.52;;;0.80;;
36321;SDS011;23564;48.290;11.460;2022-10-15T02:53:23;3.20;;;0.80;;
36321;SDS011;23564;48.290;11.460;2022-10-15T02:55:49;1.58;;;0.82;;
36321;SDS011;23564;48.290;11.460;2022-10-15T02:58:15;1.20;;;0.70;;
36321;SDS011;23564;48.290;11.460;2022-10-15T03:00:40;2.17;;;0.80;;
36321;SDS011;23564;48.290;11.460;2022-10-15T03:03:06;4.22;;;0.75;;
36321;SDS011;23564;48.290;11.460;2022-10-15T03:05:32;4.85;;;0.90;;
36321;SDS011;23564;48.290;11.460;2022-10-15T03:07:59;2.15;;;0.60;;
36321;SDS011;23564;48.290;11.460;2022-10-15T03:10:24;3.15;;;0.75;;
36321;SDS011;23564;48.290;11.460;2022-10-15T03:12:50;3.35;;;0.80;;
36321;SDS011;23564;48.290;11.460;2022-10-15T03:15:16;0.70;;;0.68;;
36321;SDS011;23564;48.290;11.460;2022-10-15T03:17:41;3.75;;;0.77;;
36321;SDS011;23564;48.290;11.460;2022-10-15T03:20:07;1.40;;;0.43;;
36321;SDS011;23564;48.290;11.460;2022-10-15T03:22:32;0.68;;;0.52;;
36321;SDS011;23564;48.290;11.460;2022-10-15T03:24:58;1.15;;;0.40;;
36321;SDS011;23564;48.290;11.460;2022-10-15T03:27:24;1.52;;;0.60;;
36321;SDS011;23564;48.290;11.460;2022-10-15T03:29:49;2.08;;;0.60;;
36321;SDS011;23564;48.290;11.460;2022-10-15T03:32:15;5.97;;;0.60;;
36321;SDS011;23564;48.290;11.460;2022-10-15T03:34:41;5.60;;;1.70;;
36321;SDS011;23564;48.290;11.460;2022-10-15T03:37:06;3.22;;;0.73;;
36321;SDS011;23564;48.290;11.460;2022-10-15T03:39:32;3.25;;;0.52;;
36321;SDS011;23564;48.290;11.460;2022-10-15T03:41:57;2.75;;;0.50;;
36321;SDS011;23564;48.290;11.460;2022-10-15T03:44:23;0.77;;;0.30;;
36321;SDS011;23564;48.290;11.460;2022-10-15T03:46:48;1.38;;;0.43;;
36321;SDS011;23564;48.290;11.460;2022-10-15T03:49:14;1.40;;;0.38;;
36321;SDS011;23564;48.290;11.460;2022-10-15T03:51:39;2.97;;;0.40;;
36321;SDS011;23564;48.290;11.460;2022-10-15T03:54:05;1.25;;;0.63;;
36321;SDS011;23564;48.290;11.460;2022-10-15T03:56:31;1.15;;;0.40;;
36321;SDS011;23564;48.290;11.460;2022-10-15T03:58:56;5.05;;;0.40;;
36321;SDS011;23564;48.290;11.460;2022-10-15T04:01:22;1.85;;;0.57;;
36321;SDS011;23564;48.290;11.460;2022-10-15T04:03:50;2.58;;;0.40;;
36321;SDS011;23564;48.290;11.460;2022-10-15T04:06:17;1.27;;;0.40;;
36321;SDS011;23564;48.290;11.460;2022-10-15T04:08:42;5.13;;;0.50;;
36321;SDS011;23564;48.290;11.460;2022-10-15T04:11:08;0.22;;;0.20;;
36321;SDS011;23564;48.290;11.460;2022-10-15T04:13:34;2.60;;;0.50;;
36321;SDS011;23564;48.290;11.460;2022-10-15T04:16:02;0.95;;;0.50;;
36321;SDS011;23564;48.290;11.460;2022-10-15T04:18:29;4.05;;;0.32;;
36321;SDS011;23564;48.290;11.460;2022-10-15T04:20:57;0.52;;;0.30;;
36321;SDS011;23564;48.290;11.460;2022-10-15T04:23:23;0.82;;;0.38;;
36321;SDS011;23564;48.290;11.460;2022-10-15T04:25:49;3.22;;;0.30;;
36321;SDS011;23564;48.290;11.460;2022-10-15T04:28:14;3.15;;;0.32;;
36321;SDS011;23564;48.290;11.460;2022-10-15T04:30:40;1.92;;;0.43;;
36321;SDS011;23564;48.290;11.460;2022-10-15T04:33:06;2.08;;;0.30;;
36321;SDS011;23564;48.290;11.460;2022-10-15T04:35:31;1.95;;;0.43;;
36321;SDS011;23564;48.290;11.460;2022-10-15T04:37:58;3.03;;;0.45;;
36321;SDS011;23564;48.290;11.460;2022-10-15T04:40:24;0.15;;;0.10;;
36321;SDS011;23564;48.290;11.460;2022-10-15T04:42:50;0.73;;;0.30;;
36321;SDS011;23564;48.290;11.460;2022-10-15T04:45:15;0.60;;;0.43;;
36321;SDS011;23564;48.290;11.460;2022-10-15T04:47:41;1.30;;;0.32;;
36321;SDS011;23564;48.290;11.460;2022-10-15T04:50:07;0.28;;;0.20;;
36321;SDS011;23564;48.290;11.460;2022-10-15T04:52:33;5.45;;;0.40;;
36321;SDS011;23564;48.290;11.460;2022-10-15T04:54:59;0.30;;;0.20;;
36321;SDS011;23564;48.290;11.460;2022-10-15T04:57:26;1.33;;;0.40;;
36321;SDS011;23564;48.290;11.460;2022-10-15T04:59:52;0.95;;;0.30;;
36321;SDS011;23564;48.290;11.460;2022-10-15T05:02:18;0.68;;;0.30;;
36321;SDS011;23564;48.290;11.460;2022-10-15T05:04:44;0.77;;;0.40;;
36321;SDS011;23564;48.290;11.460;2022-10-15T05:07:09;0.90;;;0.20;;
36321;SDS011;23564;48.290;11.460;2022-10-15T05:09:35;1.23;;;0.28;;
36321;SDS011;23564;48.290;11.460;2022-10-15T05:12:00;3.17;;;0.30;;
36321;SDS011;23564;48.290;11.460;2022-10-15T05:14:26;2.47;;;0.20;;
36321;SDS011;23564;48.290;11.460;2022-10-15T05:16:52;0.45;;;0.20;;
36321;SDS011;23564;48.290;11.460;2022-10-15T05:19:17;1.13;;;0.63;;
36321;SDS011;23564;48.290;11.460;2022-10-15T05:21:43;1.00;;;0.40;;
36321;SDS011;23564;48.290;11.460;2022-10-15T05:24:09;0.73;;;0.40;;
36321;SDS011;23564;48.290;11.460;2022-10-15T05:26:35;0.38;;;0.38;;
36321;SDS011;23564;48.290;11.460;2022-10-15T05:29:00;1.25;;;0.50;;
36321;SDS011;23564;48.290;11.460;2022-10-15T05:31:27;1.95;;;0.38;;
36321;SDS011;23564;48.290;11.460;2022-10-15T05:33:54;1.55;;;0.30;;
36321;SDS011;23564;48.290;11.460;2022-10-15T05:36:27;1.17;;;0.65;;
36321;SDS011;23564;48.290;11.460;2022-10-15T05:38:55;1.38;;;0.50;;
36321;SDS011;23564;48.290;11.460;2022-10-15T05:41:25;0.38;;;0.38;;
36321;SDS011;23564;48.290;11.460;2022-10-15T05:43:52;1.90;;;0.30;;
36321;SDS011;23564;48.290;11.460;2022-10-15T05:46:19;0.43;;;0.40;;
36321;SDS011;23564;48.290;11.460;2022-10-15T05:48:49;1.65;;;0.43;;
36321;SDS011;23564;48.290;11.460;2022-10-15T05:51:23;3.72;;;0.50;;
36321;SDS011;23564;48.290;11.460;2022-10-15T05:53:51;0.47;;;0.30;;
36321;SDS011;23564;48.290;11.460;2022-10-15T05:56:17;0.90;;;0.60;;
36321;SDS011;23564;48.290;11.460;2022-10-15T05:58:43;0.70;;;0.50;;
36321;SDS011;23564;48.290;11.460;2022-10-15T06:01:09;1.65;;;0.50;;
36321;SDS011;23564;48.290;11.460;2022-10-15T06:03:36;1.40;;;0.30;;
36321;SDS011;23564;48.290;11.460;2022-10-15T06:06:02;0.28;;;0.28;;
36321;SDS011;23564;48.290;11.460;2022-10-15T06:08:29;0.40;;;0.40;;
36321;SDS011;23564;48.290;11.460;2022-10-15T06:11:00;3.25;;;0.40;;
36321;SDS011;23564;48.290;11.460;2022-10-15T06:13:27;0.40;;;0.40;;
36321;SDS011;23564;48.290;11.460;2022-10-15T06:15:52;2.35;;;0.50;;
36321;SDS011;23564;48.290;11.460;2022-10-15T06:18:18;0.52;;;0.43;;
36321;SDS011;23564;48.290;11.460;2022-10-15T06:20:44;2.25;;;0.50;;
36321;SDS011;23564;48.290;11.460;2022-10-15T06:23:15;0.60;;;0.50;;
36321;SDS011;23564;48.290;11.460;2022-10-15T06:25:41;2.80;;;0.50;;
36321;SDS011;23564;48.290;11.460;2022-10-15T06:28:06;0.70;;;0.40;;
36321;SDS011;23564;48.290;11.460;2022-10-15T06:30:33;4.65;;;0.63;;
36321;SDS011;23564;48.290;11.460;2022-10-15T06:32:59;2.00;;;0.40;;
36321;SDS011;23564;48.290;11.460;2022-10-15T06:35:25;1.30;;;0.50;;
36321;SDS011;23564;48.290;11.460;2022-10-15T06:37:54;0.73;;;0.40;;
36321;SDS011;23564;48.290;11.460;2022-10-15T06:40:20;0.35;;;0.30;;
36321;SDS011;23564;48.290;11.460;2022-10-15T06:42:45;3.38;;;0.40;;
36321;SDS011;23564;48.290;11.460;2022-10-15T06:45:11;0.73;;;0.40;;
36321;SDS011;23564;48.290;11.460;2022-10-15T06:47:39;0.60;;;0.35;;
36321;SDS011;23564;48.290;11.460;2022-10-15T06:50:05;0.50;;;0.38;;
36321;SDS011;23564;48.290;11.460;2022-10-15T06:52:31;0.17;;;0.17;;
36321;SDS011;23564;48.290;11.460;2022-10-15T06:54:57;0.60;;;0.40;;
36321;SDS011;23564;48.290;11.460;2022-10-15T06:57:22;0.85;;;0.30;;
36321;SDS011;23564;48.290;11.460;2022-10-15T06:59:49;0.68;;;0.40;;
36321;SDS011;23564;48.290;11.460;2022-10-15T07:02:15;0.95;;;0.40;;
36321;SDS011;23564;48.290;11.460;2022-10-15T07:04:43;2.53;;;0.50;;
36321;SDS011;23564;48.290;11.460;2022-10-15T07:07:09;0.35;;;0.32;;
36321;SDS011;23564;48.290;11.460;2022-10-15T07:09:35;0.60;;;0.30;;
36321;SDS011;23564;48.290;11.460;2022-10-15T07:12:00;0.20;;;0.20;;
36321;SDS011;23564;48.290;11.460;2022-10-15T07:14:27;1.65;;;0.40;;
36321;SDS011;23564;48.290;11.460;2022-10-15T07:16:52;0.60;;;0.20;;
36321;SDS011;23564;48.290;11.460;2022-10-15T07:19:18;0.80;;;0.35;;
36321;SDS011;23564;48.290;11.460;2022-10-15T07:21:43;0.55;;;0.38;;
36321;SDS011;23564;48.290;11.460;2022-10-15T07:24:09;0.88;;;0.20;;
36321;SDS011;23564;48.290;11.460;2022-10-15T07:26:35;4.05;;;0.20;;
36321;SDS011;23564;48.290;11.460;2022-10-15T07:29:01;0.40;;;0.30;;
36321;SDS011;23564;48.290;11.460;2022-10-15T07:31:27;0.20;;;0.10;;
36321;SDS011;23564;48.290;11.460;2022-10-15T07:33:53;1.33;;;0.30;;
36321;SDS011;23564;48.290;11.460;2022-10-15T07:36:19;0.32;;;0.20;;
36321;SDS011;23564;48.290;11.460;2022-10-15T07:38:44;0.85;;;0.45;;
36321;SDS011;23564;48.290;11.460;2022-10-15T07:41:10;0.30;;;0.20;;
36321;SDS011;23564;48.290;11.460;2022-10-15T07:43:36;0.35;;;0.25;;
36321;SDS011;23564;48.290;11.460;2022-10-15T07:46:02;0.22;;;0.15;;
36321;SDS011;23564;48.290;11.460;2022-10-15T07:48:29;0.40;;;0.20;;
36321;SDS011;23564;48.290;11.460;2022-10-15T07:50:59;1.90;;;0.30;;
36321;SDS011;23564;48.290;11.460;2022-10-15T07:53:26;1.33;;;0.20;;
36321;SDS011;23564;48.290;11.460;2022-10-15T07:55:52;0.20;;;0.20;;
36321;SDS011;23564;48.290;11.460;2022-10-15T07:58:18;0.10;;;0.10;;
36321;SDS011;23564;48.290;11.460;2022-10-15T08:00:44;0.75;;;0.40;;
36321;SDS011;23564;48.290;11.460;2022-10-15T08:03:09;0.35;;;0.28;;
36321;SDS011;23564;48.290;11.460;2022-10-15T08:05:35;0.22;;;0.22;;
36321;SDS011;23564;48.290;11.460;2022-10-15T08:08:01;0.28;;;0.17;;
36321;SDS011;23564;48.290;11.460;2022-10-15T08:10:27;0.57;;;0.20;;
36321;SDS011;23564;48.290;11.460;2022-10-15T08:12:53;0.28;;;0.15;;
36321;SDS011;23564;48.290;11.460;2022-10-15T08:15:18;0.35;;;0.30;;
36321;SDS011;23564;48.290;11.460;2022-10-15T08:17:44;0.85;;;0.30;;
36321;SDS011;23564;48.290;11.460;2022-10-15T08:20:10;1.42;;;0.57;;
36321;SDS011;23564;48.290;11.460;2022-10-15T08:22:35;0.40;;;0.35;;
36321;SDS011;23564;48.290;11.460;2022-10-15T08:25:01;0.85;;;0.50;;
36321;SDS011;23564;48.290;11.460;2022-10-15T08:27:27;0.25;;;0.20;;
36321;SDS011;23564;48.290;11.460;2022-10-15T08:29:53;0.68;;;0.30;;
36321;SDS011;23564;48.290;11.460;2022-10-15T08:32:18;4.72;;;0.50;;
36321;SDS011;23564;48.290;11.460;2022-10-15T08:34:44;0.25;;;0.15;;
36321;SDS011;23564;48.290;11.460;2022-10-15T08:37:09;0.65;;;0.30;;
36321;SDS011;23564;48.290;11.460;2022-10-15T08:39:35;1.25;;;0.30;;
36321;SDS011;23564;48.290;11.460;2022-10-15T08:42:02;0.28;;;0.10;;
36321;SDS011;23564;48.290;11.460;2022-10-15T08:44:40;0.93;;;0.35;;
36321;SDS011;23564;48.290;11.460;2022-10-15T08:49:54;0.15;;;0.15;;
36321;SDS011;23564;48.290;11.460;2022-10-15T08:52:41;1.35;;;0.20;;
36321;SDS011;23564;48.290;11.460;2022-10-15T08:55:17;0.63;;;0.20;;
36321;SDS011;23564;48.290;11.460;2022-10-15T08:58:20;0.70;;;0.15;;
36321;SDS011;23564;48.290;11.460;2022-10-15T09:00:41;0.20;;;0.10;;
36321;SDS011;23564;48.290;11.460;2022-10-15T09:14:30;0.95;;;0.20;;
36321;SDS011;23564;48.290;11.460;2022-10-15T09:17:01;1.90;;;0.20;;
36321;SDS011;23564;48.290;11.460;2022-10-15T09:19:30;0.40;;;0.20;;
36321;SDS011;23564;48.290;11.460;2022-10-15T09:21:58;0.43;;;0.40;;
36321;SDS011;23564;48.290;11.460;2022-10-15T09:24:27;1.85;;;0.20;;
36321;SDS011;23564;48.290;11.460;2022-10-15T09:32:22;0.35;;;0.30;;
36321;SDS011;23564;48.290;11.460;2022-10-15T09:34:58;0.80;;;0.30;;
36321;SDS011;23564;48.290;11.460;2022-10-15T09:37:37;0.25;;;0.25;;
36321;SDS011;23564;48.290;11.460;2022-10-15T09:40:23;0.90;;;0.20;;
36321;SDS011;23564;48.290;11.460;2022-10-15T09:42:52;0.30;;;0.20;;
36321;SDS011;23564;48.290;11.460;2022-10-15T09:45:21;0.28;;;0.28;;
36321;SDS011;23564;48.290;11.460;2022-10-15T09:47:50;0.32;;;0.20;;
36321;SDS011;23564;48.290;11.460;2022-10-15T09:50:16;0.10;;;0.10;;
36321;SDS011;23564;48.290;11.460;2022-10-15T09:52:55;0.47;;;0.13;;
36321;SDS011;23564;48.290;11.460;2022-10-15T09:58:31;0.20;;;0.20;;
36321;SDS011;23564;48.290;11.460;2022-10-15T10:01:03;0.28;;;0.05;;
36321;SDS011;23564;48.290;11.460;2022-10-15T10:03:31;0.75;;;0.22;;
36321;SDS011;23564;48.290;11.460;2022-10-15T10:06:08;0.28;;;0.20;;
36321;SDS011;23564;48.290;11.460;2022-10-15T10:08:54;0.20;;;0.20;;
36321;SDS011;23564;48.290;11.460;2022-10-15T10:11:22;1.60;;;0.30;;
36321;SDS011;23564;48.290;11.460;2022-10-15T10:13:55;1.75;;;0.38;;
36321;SDS011;23564;48.290;11.460;2022-10-15T10:16:23;2.55;;;0.40;;
36321;SDS011;23564;48.290;11.460;2022-10-15T10:19:08;0.63;;;0.13;;
36321;SDS011;23564;48.290;11.460;2022-10-15T10:21:37;0.75;;;0.47;;
36321;SDS011;23564;48.290;11.460;2022-10-15T10:24:25;0.50;;;0.28;;
36321;SDS011;23564;48.290;11.460;2022-10-15T10:26:54;0.82;;;0.30;;
36321;SDS011;23564;48.290;11.460;2022-10-15T10:29:21;0.50;;;0.30;;
36321;SDS011;23564;48.290;11.460;2022-10-15T10:31:47;1.95;;;1.10;;
36321;SDS011;23564;48.290;11.460;2022-10-15T10:34:16;0.95;;;0.40;;
36321;SDS011;23564;48.290;11.460;2022-10-15T10:36:50;0.25;;;0.20;;
36321;SDS011;23564;48.290;11.460;2022-10-15T10:39:20;12.77;;;0.50;;
36321;SDS011;23564;48.290;11.460;2022-10-15T10:41:54;0.60;;;0.32;;
36321;SDS011;23564;48.290;11.460;2022-10-15T10:44:22;0.70;;;0.50;;
36321;SDS011;23564;48.290;11.460;2022-10-15T10:47:04;0.70;;;0.28;;
36321;SDS011;23564;48.290;11.460;2022-10-15T10:49:48;1.42;;;0.40;;
36321;SDS011;23564;48.290;11.460;2022-10-15T10:52:20;2.38;;;0.50;;
36321;SDS011;23564;48.290;11.460;2022-10-15T10:55:07;5.28;;;0.40;;
36321;SDS011;23564;48.290;11.460;2022-10-15T11:00:17;1.77;;;0.60;;
36321;SDS011;23564;48.290;11.460;2022-10-15T11:02:47;3.47;;;0.40;;
36321;SDS011;23564;48.290;11.460;2022-10-15T11:05:16;2.78;;;0.43;;
36321;SDS011;23564;48.290;11.460;2022-10-15T11:07:56;1.52;;;0.30;;
36321;SDS011;23564;48.290;11.460;2022-10-15T11:10:48;0.63;;;0.30;;
36321;SDS011;23564;48.290;11.460;2022-10-15T11:14:07;9.25;;;0.68;;
36321;SDS011;23564;48.290;11.460;2022-10-15T11:16:20;1.10;;;0.40;;
36321;SDS011;23564;48.290;11.460;2022-10-15T11:19:10;1.85;;;0.45;;
36321;SDS011;23564;48.290;11.460;2022-10-15T11:24:38;1.25;;;0.40;;
36321;SDS011;23564;48.290;11.460;2022-10-15T11:30:09;0.77;;;0.30;;
36321;SDS011;23564;48.290;11.460;2022-10-15T11:38:50;1.52;;;0.30;;
36321;SDS011;23564;48.290;11.460;2022-10-15T11:41:46;0.68;;;0.45;;
36321;SDS011;23564;48.290;11.460;2022-10-15T11:47:25;5.82;;;0.80;;
36321;SDS011;23564;48.290;11.460;2022-10-15T11:50:06;1.75;;;0.50;;
36321;SDS011;23564;48.290;11.460;2022-10-15T11:55:41;2.88;;;0.40;;
36321;SDS011;23564;48.290;11.460;2022-10-15T12:02:27;3.00;;;0.57;;
36321;SDS011;23564;48.290;11.460;2022-10-15T12:04:45;1.30;;;0.30;;
36321;SDS011;23564;48.290;11.460;2022-10-15T12:07:21;0.77;;;0.35;;
36321;SDS011;23564;48.290;11.460;2022-10-15T12:09:51;3.13;;;0.75;;
36321;SDS011;23564;48.290;11.460;2022-10-15T12:15:54;0.85;;;0.45;;
36321;SDS011;23564;48.290;11.460;2022-10-15T12:18:51;2.92;;;0.45;;
36321;SDS011;23564;48.290;11.460;2022-10-15T12:21:36;1.40;;;0.32;;
36321;SDS011;23564;48.290;11.460;2022-10-15T12:24:03;1.30;;;0.77;;
36321;SDS011;23564;48.290;11.460;2022-10-15T12:26:34;2.15;;;0.70;;
36321;SDS011;23564;48.290;11.460;2022-10-15T12:29:01;5.55;;;0.52;;
36321;SDS011;23564;48.290;11.460;2022-10-15T12:31:46;4.57;;;0.77;;
36321;SDS011;23564;48.290;11.460;2022-10-15T12:34:24;4.55;;;0.50;;
36321;SDS011;23564;48.290;11.460;2022-10-15T12:37:04;3.58;;;0.55;;
36321;SDS011;23564;48.290;11.460;2022-10-15T12:39:43;1.65;;;0.70;;
36321;SDS011;23564;48.290;11.460;2022-10-15T12:42:21;0.88;;;0.30;;
36321;SDS011;23564;48.290;11.460;2022-10-15T12:44:52;1.23;;;0.47;;
36321;SDS011;23564;48.290;11.460;2022-10-15T12:50:18;3.08;;;0.73;;
36321;SDS011;23564;48.290;11.460;2022-10-15T12:57:55;1.17;;;0.30;;
36321;SDS011;23564;48.290;11.460;2022-10-15T13:00:26;1.60;;;0.40;;
36321;SDS011;23564;48.290;11.460;2022-10-15T13:03:07;1.17;;;0.40;;
36321;SDS011;23564;48.290;11.460;2022-10-15T13:05:39;0.50;;;0.38;;
36321;SDS011;23564;48.290;11.460;2022-10-15T13:08:11;2.40;;;0.52;;
36321;SDS011;23564;48.290;11.460;2022-10-15T13:10:45;1.05;;;0.30;;
36321;SDS011;23564;48.290;11.460;2022-10-15T13:13:14;2.13;;;0.57;;
36321;SDS011;23564;48.290;11.460;2022-10-15T13:15:49;1.08;;;0.50;;
36321;SDS011;23564;48.290;11.460;2022-10-15T13:18:20;1.10;;;0.52;;
36321;SDS011;23564;48.290;11.460;2022-10-15T13:20:47;1.45;;;0.28;;
36321;SDS011;23564;48.290;11.460;2022-10-15T13:23:19;2.38;;;0.50;;
36321;SDS011;23564;48.290;11.460;2022-10-15T13:25:49;5.32;;;0.43;;
36321;SDS011;23564;48.290;11.460;2022-10-15T13:28:31;2.28;;;0.40;;
36321;SDS011;23564;48.290;11.460;2022-10-15T13:30:59;0.82;;;0.52;;
36321;SDS011;23564;48.290;11.460;2022-10-15T13:33:27;3.63;;;0.70;;
36321;SDS011;23564;48.290;11.460;2022-10-15T13:35:53;1.00;;;0.45;;
36321;SDS011;23564;48.290;11.460;2022-10-15T13:38:22;1.90;;;0.40;;
36321;SDS011;23564;48.290;11.460;2022-10-15T13:40:50;0.85;;;0.40;;
36321;SDS011;23564;48.290;11.460;2022-10-15T13:45:45;1.02;;;0.52;;
36321;SDS011;23564;48.290;11.460;2022-10-15T13:48:14;0.65;;;0.40;;
36321;SDS011;23564;48.290;11.460;2022-10-15T13:50:46;0.80;;;0.50;;
36321;SDS011;23564;48.290;11.460;2022-10-15T13:53:26;1.55;;;0.65;;
36321;SDS011;23564;48.290;11.460;2022-10-15T13:56:01;4.25;;;0.95;;
36321;SDS011;23564;48.290;11.460;2022-10-15T13:58:32;1.40;;;0.40;;
36321;SDS011;23564;48.290;11.460;2022-10-15T14:00:59;1.35;;;0.35;;
36321;SDS011;23564;48.290;11.460;2022-10-15T14:03:29;4.40;;;0.50;;
36321;SDS011;23564;48.290;11.460;2022-10-15T14:05:56;4.22;;;0.60;;
36321;SDS011;23564;48.290;11.460;2022-10-15T14:08:27;5.88;;;0.90;;
36321;SDS011;23564;48.290;11.460;2022-10-15T14:10:57;3.08;;;0.50;;
36321;SDS011;23564;48.290;11.460;2022-10-15T14:13:24;1.65;;;0.47;;
36321;SDS011;23564;48.290;11.460;2022-10-15T14:16:09;6.63;;;1.00;;
36321;SDS011;23564;48.290;11.460;2022-10-15T14:18:38;2.08;;;0.52;;
36321;SDS011;23564;48.290;11.460;2022-10-15T14:21:11;1.40;;;0.55;;
36321;SDS011;23564;48.290;11.460;2022-10-15T14:23:39;5.35;;;0.60;;
36321;SDS011;23564;48.290;11.460;2022-10-15T14:26:06;1.58;;;0.70;;
36321;SDS011;23564;48.290;11.460;2022-10-15T14:28:34;0.98;;;0.60;;
36321;SDS011;23564;48.290;11.460;2022-10-15T14:31:01;4.18;;;0.52;;
36321;SDS011;23564;48.290;11.460;2022-10-15T14:39:32;2.10;;;0.55;;
36321;SDS011;23564;48.290;11.460;2022-10-15T14:41:53;8.07;;;0.60;;
36321;SDS011;23564;48.290;11.460;2022-10-15T14:44:39;3.47;;;0.70;;
36321;SDS011;23564;48.290;11.460;2022-10-15T14:47:13;4.80;;;0.68;;
36321;SDS011;23564;48.290;11.460;2022-10-15T14:49:48;4.63;;;0.63;;
36321;SDS011;23564;48.290;11.460;2022-10-15T14:52:17;3.72;;;0.60;;
36321;SDS011;23564;48.290;11.460;2022-10-15T14:54:46;4.07;;;1.00;;
36321;SDS011;23564;48.290;11.460;2022-10-15T14:57:28;4.90;;;0.68;;
36321;SDS011;23564;48.290;11.460;2022-10-15T14:59:58;7.65;;;0.68;;
36321;SDS011;23564;48.290;11.460;2022-10-15T15:02:26;1.73;;;0.70;;
36321;SDS011;23564;48.290;11.460;2022-10-15T15:05:07;0.70;;;0.52;;
36321;SDS011;23564;48.290;11.460;2022-10-15T15:07:43;1.08;;;0.60;;
36321;SDS011;23564;48.290;11.460;2022-10-15T15:10:09;2.83;;;0.63;;
36321;SDS011;23564;48.290;11.460;2022-10-15T15:12:36;0.82;;;0.50;;
36321;SDS011;23564;48.290;11.460;2022-10-15T15:15:04;3.13;;;0.60;;
36321;SDS011;23564;48.290;11.460;2022-10-15T15:17:37;5.55;;;0.90;;
36321;SDS011;23564;48.290;11.460;2022-10-15T15:20:02;1.55;;;0.80;;
36321;SDS011;23564;48.290;11.460;2022-10-15T15:22:29;2.05;;;0.63;;
36321;SDS011;23564;48.290;11.460;2022-10-15T15:24:56;0.98;;;0.55;;
36321;SDS011;23564;48.290;11.460;2022-10-15T15:27:25;3.70;;;0.77;;
36321;SDS011;23564;48.290;11.460;2022-10-15T15:29:55;2.22;;;0.75;;
36321;SDS011;23564;48.290;11.460;2022-10-15T15:32:22;0.57;;;0.50;;
36321;SDS011;23564;48.290;11.460;2022-10-15T15:34:48;3.28;;;0.88;;
36321;SDS011;23564;48.290;11.460;2022-10-15T15:37:19;4.88;;;1.20;;
36321;SDS011;23564;48.290;11.460;2022-10-15T15:39:45;2.55;;;1.35;;
36321;SDS011;23564;48.290;11.460;2022-10-15T15:42:21;5.53;;;1.60;;
36321;SDS011;23564;48.290;11.460;2022-10-15T15:44:48;5.18;;;2.47;;
36321;SDS011;23564;48.290;11.460;2022-10-15T15:47:14;15.57;;;7.28;;
36321;SDS011;23564;48.290;11.460;2022-10-15T15:49:40;15.10;;;6.30;;
36321;SDS011;23564;48.290;11.460;2022-10-15T15:52:06;4.53;;;1.67;;
36321;SDS011;23564;48.290;11.460;2022-10-15T15:54:37;5.05;;;2.60;;
36321;SDS011;23564;48.290;11.460;2022-10-15T15:57:03;6.95;;;1.50;;
36321;SDS011;23564;48.290;11.460;2022-10-15T15:59:29;5.13;;;1.00;;
36321;SDS011;23564;48.290;11.460;2022-10-15T16:01:54;2.60;;;0.93;;
36321;SDS011;23564;48.290;11.460;2022-10-15T16:04:20;3.95;;;0.90;;
36321;SDS011;23564;48.290;11.460;2022-10-15T16:06:46;3.78;;;0.70;;
36321;SDS011;23564;48.290;11.460;2022-10-15T16:09:13;3.83;;;1.33;;
36321;SDS011;23564;48.290;11.460;2022-10-15T16:11:42;1.45;;;0.75;;